Time;durP1;ratioP1;P1;durP2;ratioP2;P2;SDS_P1;SDS_P2;PMS_P1;PMS_P2;Temp;Humidity;BMP_temperature;BMP_pressure;BME280_temperature;BME280_humidity;BME280_pressure;Samples;Min_cycle;Max_cycle;Signal;HPM_P1;HPM_P2
2022/11/15 00:01:07;;;;;;;;;9.33;8.00;;;;;12.67;75.84;100593.91;4977822;28;45242;-71
2022/11/15 00:03:32;;;;;;;;;6.67;6.67;;;;;12.18;75.75;100516.34;4978260;28;45613;-69
2022/11/15 00:06:02;;;;;;;;;7.00;7.00;;;;;12.77;75.12;100605.25;4991718;28;59908;-71
2022/11/15 00:08:30;;;;;;;;;6.00;6.00;;;;;12.83;75.40;100627.81;4977147;28;45434;-72
2022/11/15 00:10:57;;;;;;;;;7.33;4.33;;;;;12.69;75.25;100613.25;4976704;28;45479;-73
2022/11/15 00:13:22;;;;;;;;;7.67;6.00;;;;;12.59;75.39;100588.50;4977243;28;45518;-70
2022/11/15 00:15:48;;;;;;;;;6.00;6.00;;;;;12.62;75.16;100593.56;4977252;28;45872;-70
2022/11/15 00:18:14;;;;;;;;;7.00;7.00;;;;;12.62;75.24;100593.56;4977104;28;45456;-71
2022/11/15 00:20:39;;;;;;;;;6.67;5.00;;;;;12.75;75.33;100623.25;4977497;28;45448;-71
2022/11/15 00:23:05;;;;;;;;;7.33;6.33;;;;;12.45;75.51;100568.66;4977617;28;45338;-70
2022/11/15 00:25:31;;;;;;;;;9.33;8.00;;;;;12.70;75.39;100606.91;4978454;28;45627;-72
2022/11/15 00:27:58;;;;;;;;;7.00;7.00;;;;;12.57;75.36;100609.16;4977212;28;45483;-72
2022/11/15 00:30:24;;;;;;;;;4.67;4.67;;;;;12.36;75.57;100574.91;4977505;28;45303;-70
2022/11/15 00:32:50;;;;;;;;;7.33;6.00;;;;;12.29;75.56;100566.72;4977286;28;46040;-70
2022/11/15 00:35:15;;;;;;;;;9.33;8.33;;;;;12.04;75.06;100539.13;4976947;28;46210;-70
2022/11/15 00:37:41;;;;;;;;;6.00;6.00;;;;;12.44;75.67;100599.81;4977042;28;45450;-70
2022/11/15 00:40:07;;;;;;;;;6.00;4.00;;;;;12.43;75.37;100598.13;4977015;28;45522;-71
2022/11/15 00:42:33;;;;;;;;;7.00;5.00;;;;;12.38;75.42;100594.25;4976879;28;45235;-72
2022/11/15 00:44:58;;;;;;;;;9.00;6.33;;;;;12.35;74.96;100587.41;4993353;28;48226;-71
2022/11/15 00:47:23;;;;;;;;;4.00;4.00;;;;;12.12;75.43;100556.97;4980210;28;45268;-71
2022/11/15 00:49:48;;;;;;;;;5.00;5.00;;;;;12.11;74.88;100565.97;4978877;28;45309;-71
2022/11/15 00:52:14;;;;;;;;;6.33;5.00;;;;;12.25;75.60;100584.03;4979937;28;45580;-70
2022/11/15 00:54:39;;;;;;;;;5.00;5.00;;;;;12.25;75.27;100589.38;4978618;28;48822;-71
2022/11/15 00:57:04;;;;;;;;;7.67;6.00;;;;;12.08;75.13;100568.97;4995082;28;45862;-71
2022/11/15 00:59:30;;;;;;;;;6.00;6.00;;;;;12.11;75.25;100565.97;4995133;28;45255;-71
2022/11/15 01:01:55;;;;;;;;;7.00;7.00;;;;;11.96;75.21;100549.72;4980242;28;45552;-69
2022/11/15 01:04:20;;;;;;;;;6.33;5.33;;;;;12.02;75.65;100557.09;4979929;28;46175;-71
2022/11/15 01:06:46;;;;;;;;;5.67;5.67;;;;;12.06;75.58;100560.28;4979394;28;62912;-70
2022/11/15 01:09:11;;;;;;;;;11.33;6.00;;;;;12.07;75.25;100586.78;4979825;28;45480;-72
2022/11/15 01:11:36;;;;;;;;;6.67;5.67;;;;;11.19;75.10;100420.91;4978123;28;45304;-69
2022/11/15 01:14:02;;;;;;;;;6.00;6.00;;;;;11.91;75.14;100565.34;4977781;28;56357;-71
2022/11/15 01:16:27;;;;;;;;;6.33;5.33;;;;;11.82;75.64;100550.31;4979658;28;45527;-70
2022/11/15 01:18:52;;;;;;;;;7.67;5.00;;;;;11.74;75.35;100545.72;4979678;28;45273;-70
2022/11/15 01:21:19;;;;;;;;;4.67;4.67;;;;;11.17;75.72;100461.94;4994781;28;45290;-70
2022/11/15 01:23:44;;;;;;;;;7.00;5.00;;;;;11.42;75.48;100495.75;4979678;28;46443;-70
2022/11/15 01:26:12;;;;;;;;;4.33;4.33;;;;;11.72;75.83;100555.69;4977970;28;45341;-70
2022/11/15 01:28:40;;;;;;;;;3.00;2.00;;;;;11.16;75.43;100462.94;4979593;28;45355;-70
2022/11/15 01:31:17;;;;;;;;;6.33;6.33;;;;;11.07;75.87;100454.09;4980044;28;45409;-71
2022/11/15 01:33:42;;;;;;;;;5.33;4.33;;;;;10.97;75.36;100442.69;4979269;28;46164;-70
2022/11/15 01:36:12;;;;;;;;;7.00;5.33;;;;;11.61;75.92;100537.31;4979409;28;45566;-69
2022/11/15 01:38:38;;;;;;;;;5.00;5.00;;;;;11.10;75.20;100464.41;4979289;28;45493;-71
2022/11/15 01:41:04;;;;;;;;;6.00;4.67;;;;;11.48;75.40;100534.22;4979183;28;45492;-72
2022/11/15 01:43:32;;;;;;;;;4.67;3.00;;;;;11.48;75.42;100534.22;4979275;28;46180;-71
2022/11/15 01:46:05;;;;;;;;;6.00;5.00;;;;;11.29;75.56;100521.94;4979250;28;45443;-72
2022/11/15 01:48:35;;;;;;;;;5.00;3.00;;;;;11.38;75.06;100530.81;4979392;28;45235;-71
2022/11/15 01:51:06;;;;;;;;;6.00;3.67;;;;;11.38;75.35;100520.16;4979259;28;45266;-69
2022/11/15 01:53:33;;;;;;;;;7.33;5.33;;;;;11.28;74.83;100523.75;4978632;28;46308;-70
2022/11/15 01:56:05;;;;;;;;;3.00;3.00;;;;;11.31;75.07;100545.72;4978110;28;45548;-70
2022/11/15 01:58:31;;;;;;;;;2.33;2.33;;;;;11.03;75.40;100467.84;4979272;28;45265;-70
2022/11/15 02:00:56;;;;;;;;;5.00;4.67;;;;;10.96;75.05;100449.81;4979165;28;45548;-71
2022/11/15 02:03:31;;;;;;;;;5.67;4.67;;;;;11.21;75.41;100495.25;4993784;28;47680;-71
2022/11/15 02:05:57;;;;;;;;;5.33;4.00;;;;;10.89;75.53;100466.56;4979070;28;45456;-70
2022/11/15 02:08:23;;;;;;;;;4.00;4.00;;;;;11.14;75.31;100497.69;4978917;28;45326;-71
2022/11/15 02:10:48;;;;;;;;;6.00;4.33;;;;;10.92;75.29;100459.09;4980066;28;45552;-71
2022/11/15 02:13:17;;;;;;;;;5.67;5.67;;;;;10.56;74.95;100407.75;4979211;28;45672;-72
2022/11/15 02:16:14;;;;;;;;;2.33;2.33;;;;;11.05;75.14;100482.66;4978723;28;45357;-69
2022/11/15 02:19:02;;;;;;;;;4.00;4.00;;;;;11.03;74.89;100484.66;4961893;28;45577;-71
2022/11/15 02:21:51;;;;;;;;;6.00;6.00;;;;;10.12;74.53;100331.56;4979744;28;45297;-71
2022/11/15 02:24:51;;;;;;;;;5.00;3.67;;;;;10.92;74.48;100472.41;4978816;28;45835;-72
2022/11/15 02:27:35;;;;;;;;;5.67;4.00;;;;;10.88;74.78;100471.03;4979217;28;45322;-70
2022/11/15 02:30:15;;;;;;;;;6.00;4.00;;;;;10.83;74.45;100461.84;4978819;28;45599;-69
2022/11/15 02:32:47;;;;;;;;;5.33;3.00;;;;;10.73;74.67;100434.50;4978615;28;45342;-71
2022/11/15 02:35:19;;;;;;;;;4.33;4.33;;;;;10.80;74.07;100447.00;4978384;28;45420;-71
2022/11/15 02:37:58;;;;;;;;;6.67;5.00;;;;;10.64;74.30;100422.97;4977113;28;45804;-71
2022/11/15 02:40:55;;;;;;;;;4.33;4.00;;;;;10.89;74.02;100446.13;4978252;28;45326;-71
2022/11/15 02:43:57;;;;;;;;;6.67;5.00;;;;;10.92;73.52;100450.28;4974089;28;45397;-69
2022/11/15 02:49:28;;;;;;;;;3.00;2.00;;;;;10.00;73.25;100281.31;4978195;28;45276;-71
2022/11/15 02:51:55;;;;;;;;;4.67;3.00;;;;;10.96;73.36;100433.88;4978255;28;45453;-71
2022/11/15 02:54:31;;;;;;;;;4.00;4.00;;;;;10.75;73.25;100395.28;4978069;28;45360;-70
2022/11/15 02:57:06;;;;;;;;;8.33;5.00;;;;;10.95;73.42;100431.34;4978104;28;45598;-70
2022/11/15 02:59:53;;;;;;;;;3.00;3.00;;;;;11.00;73.38;100415.75;4978089;28;45342;-71
2022/11/15 03:02:42;;;;;;;;;5.67;3.67;;;;;10.89;73.21;100411.53;4978163;28;45436;-69
2022/11/15 03:05:49;;;;;;;;;5.67;4.33;;;;;10.92;73.35;100408.56;4978023;28;45381;-69
2022/11/15 03:08:45;;;;;;;;;7.00;5.00;;;;;10.89;72.92;100408.03;4974710;28;46298;-69
2022/11/15 03:11:13;;;;;;;;;3.00;3.00;;;;;10.94;73.45;100397.78;4977706;28;45539;-71
2022/11/15 03:13:56;;;;;;;;;5.00;3.67;;;;;10.39;72.97;100312.91;4977812;28;45296;-71
2022/11/15 03:16:39;;;;;;;;;3.00;3.00;;;;;10.81;73.30;100394.66;4978068;28;45483;-70
2022/11/15 03:19:05;;;;;;;;;4.00;3.00;;;;;10.86;73.20;100393.25;4977759;28;45716;-70
2022/11/15 03:21:34;;;;;;;;;3.33;3.33;;;;;10.90;72.99;100388.44;4977857;28;45502;-71
2022/11/15 03:24:05;;;;;;;;;3.67;3.67;;;;;10.90;73.11;100394.59;4978001;28;45272;-71
2022/11/15 03:26:33;;;;;;;;;3.33;3.33;;;;;10.83;73.12;100388.22;4977990;28;45360;-71
2022/11/15 03:29:04;;;;;;;;;2.00;2.00;;;;;10.80;73.73;100391.16;4977649;28;45308;-69
2022/11/15 03:31:46;;;;;;;;;4.67;3.00;;;;;10.91;73.58;100387.44;4977496;28;45459;-68
2022/11/15 03:34:27;;;;;;;;;5.67;4.00;;;;;10.80;73.53;100363.75;4992792;28;45313;-70
2022/11/15 03:36:53;;;;;;;;;5.67;4.67;;;;;10.81;72.94;100384.91;4977646;28;45495;-70
2022/11/15 03:39:20;;;;;;;;;5.33;5.00;;;;;10.60;73.38;100326.72;4977199;28;45610;-71
2022/11/15 03:42:05;;;;;;;;;5.67;3.33;;;;;10.92;73.61;100374.00;4977209;28;45354;-71
2022/11/15 03:44:45;;;;;;;;;8.00;6.00;;;;;10.85;73.23;100372.13;4977566;28;45272;-71
2022/11/15 03:47:23;;;;;;;;;5.00;5.00;;;;;10.85;73.82;100362.31;4977811;28;45443;-71
2022/11/15 03:49:57;;;;;;;;;5.00;4.00;;;;;10.84;73.25;100376.59;4977654;28;45746;-70
2022/11/15 03:52:23;;;;;;;;;4.00;4.00;;;;;10.71;73.35;100356.72;4977587;28;45488;-70
2022/11/15 03:54:52;;;;;;;;;4.00;3.67;;;;;10.34;73.45;100299.25;4977518;28;45549;-71
2022/11/15 03:57:17;;;;;;;;;4.67;4.00;;;;;10.76;73.70;100360.56;4980251;28;45656;-71
2022/11/15 03:59:42;;;;;;;;;6.67;6.33;;;;;10.06;73.98;100253.34;4977725;28;46683;-71
2022/11/15 04:02:08;;;;;;;;;4.00;4.00;;;;;10.74;73.95;100356.41;4977139;28;45393;-69
2022/11/15 04:04:33;;;;;;;;;4.00;4.00;;;;;10.79;73.99;100349.63;4976161;28;45553;-71
2022/11/15 04:06:58;;;;;;;;;4.00;4.00;;;;;10.63;73.37;100317.63;4977537;28;45437;-71
2022/11/15 04:09:24;;;;;;;;;3.00;3.00;;;;;10.07;73.35;100231.94;4992176;28;47548;-70
2022/11/15 04:11:49;;;;;;;;;4.00;3.00;;;;;10.59;73.87;100327.69;4976397;28;45303;-70
2022/11/15 04:14:14;;;;;;;;;4.33;4.33;;;;;10.34;73.88;100281.50;4976983;28;47242;-68
2022/11/15 04:16:39;;;;;;;;;3.67;3.00;;;;;10.61;73.76;100325.75;4977042;28;48933;-71
2022/11/15 04:24:33;;;;;;;;;5.00;3.00;;;;;10.75;73.76;100345.59;4980942;28;45385;-71
2022/11/15 04:26:58;;;;;;;;;3.00;3.00;;;;;10.51;73.77;100313.53;4979826;28;45566;-69
2022/11/15 04:29:36;;;;;;;;;3.67;2.00;;;;;10.49;74.26;100313.69;4978929;28;47480;-71
2022/11/15 04:32:06;;;;;;;;;2.67;2.67;;;;;10.65;74.48;100340.41;4980140;28;45617;-72
2022/11/15 04:34:31;;;;;;;;;5.00;2.67;;;;;10.44;74.01;100291.22;4980334;28;45251;-69
2022/11/15 04:37:12;;;;;;;;;2.67;2.00;;;;;10.69;74.05;100338.25;4980347;28;45478;-70
2022/11/15 04:39:42;;;;;;;;;3.00;3.00;;;;;10.68;74.28;100341.91;4980127;28;46922;-71
2022/11/15 04:42:08;;;;;;;;;4.67;4.33;;;;;9.90;74.36;100198.25;4980112;28;45527;-70
2022/11/15 04:44:34;;;;;;;;;2.00;2.00;;;;;10.58;74.09;100318.06;4980006;28;45566;-69
2022/11/15 04:47:00;;;;;;;;;4.00;3.67;;;;;10.23;74.71;100257.00;4980356;28;45528;-69
2022/11/15 04:49:25;;;;;;;;;4.00;4.00;;;;;9.77;75.08;100197.81;4979604;28;45516;-69
2022/11/15 04:51:50;;;;;;;;;6.67;2.33;;;;;10.38;74.86;100297.97;4979818;28;52465;-69
2022/11/15 04:54:16;;;;;;;;;5.00;3.00;;;;;10.36;75.59;100315.88;4979810;28;45484;-71
2022/11/15 04:56:42;;;;;;;;;3.00;3.00;;;;;9.74;75.30;100192.78;4980047;28;45390;-70
2022/11/15 04:59:07;;;;;;;;;2.67;2.67;;;;;10.40;75.73;100297.81;4979370;28;45755;-70
2022/11/15 05:01:32;;;;;;;;;4.00;3.33;;;;;10.11;75.53;100247.56;4980082;28;45456;-70
2022/11/15 05:06:41;;;;;;;;;4.33;3.00;;;;;10.38;76.59;100297.97;4980028;28;45322;-72
2022/11/15 05:09:07;;;;;;;;;6.67;3.33;;;;;10.35;76.18;100277.84;4979860;28;45679;-70
2022/11/15 05:11:32;;;;;;;;;4.33;2.00;;;;;10.06;76.78;100238.25;4980395;28;45417;-72
2022/11/15 05:13:57;;;;;;;;;4.00;2.00;;;;;10.19;76.99;100261.72;4979627;28;45418;-71
2022/11/15 05:16:23;;;;;;;;;5.00;4.00;;;;;10.18;76.46;100259.22;4980093;28;45293;-72
2022/11/15 05:18:53;;;;;;;;;7.00;4.33;;;;;10.02;76.98;100233.38;4979379;28;45545;-69
2022/11/15 05:21:19;;;;;;;;;4.33;4.00;;;;;10.26;76.68;100262.84;4978360;28;46043;-70
2022/11/15 05:23:44;;;;;;;;;6.33;4.67;;;;;10.34;76.50;100272.69;4979451;28;45452;-71
2022/11/15 05:26:10;;;;;;;;;5.00;4.00;;;;;10.43;76.68;100295.69;4994804;28;45435;-70
2022/11/15 05:28:36;;;;;;;;;4.33;4.00;;;;;10.43;76.90;100290.38;4994495;28;47912;-71
2022/11/15 05:31:08;;;;;;;;;6.00;6.00;;;;;10.43;77.06;100285.06;4993389;28;45485;-71
2022/11/15 05:33:35;;;;;;;;;6.67;5.67;;;;;10.45;76.53;100292.88;4979198;28;45350;-71
2022/11/15 05:36:07;;;;;;;;;4.67;4.67;;;;;10.06;76.74;100230.28;4977908;28;45590;-72
2022/11/15 05:38:32;;;;;;;;;6.67;6.67;;;;;9.85;76.62;100189.09;4979195;28;47108;-73
2022/11/15 05:41:00;;;;;;;;;5.00;5.00;;;;;9.78;76.45;100172.91;4994239;28;45440;-72
2022/11/15 05:43:25;;;;;;;;;7.00;6.00;;;;;10.10;76.71;100230.78;4981134;28;45560;-72
2022/11/15 05:45:51;;;;;;;;;5.67;5.67;;;;;10.54;76.91;100298.09;4997020;28;45639;-70
2022/11/15 05:48:17;;;;;;;;;4.00;4.00;;;;;10.17;76.37;100231.00;4994070;28;45369;-70
2022/11/15 05:50:46;;;;;;;;;5.00;4.00;;;;;10.55;76.32;100294.44;4976879;28;46424;-70
2022/11/15 05:53:14;;;;;;;;;5.00;4.00;;;;;10.65;76.40;100292.53;4993909;28;45488;-70
2022/11/15 05:55:41;;;;;;;;;6.00;5.00;;;;;10.59;76.31;100268.38;4977615;28;45557;-69
2022/11/15 05:58:07;;;;;;;;;5.33;5.33;;;;;10.68;75.93;100274.59;4978734;28;47352;-69
2022/11/15 06:00:32;;;;;;;;;6.33;4.33;;;;;10.34;76.34;100214.22;4993848;28;45678;-71
2022/11/15 06:02:58;;;;;;;;;8.00;7.00;;;;;10.12;75.91;100165.06;4976757;28;45504;-70
2022/11/15 06:05:23;;;;;;;;;8.00;6.00;;;;;10.70;76.54;100269.97;4978710;28;45262;-71
2022/11/15 06:07:48;;;;;;;;;9.00;6.00;;;;;10.33;76.69;100193.97;4978833;28;46288;-70
2022/11/15 06:10:14;;;;;;;;;5.67;5.00;;;;;9.84;76.27;100099.81;4978818;28;45315;-71
2022/11/15 06:12:39;;;;;;;;;4.00;4.00;;;;;9.92;76.05;100111.31;4978680;28;45232;-71
2022/11/15 06:15:05;;;;;;;;;7.67;5.67;;;;;10.80;76.27;100246.75;4978380;28;46800;-72
2022/11/15 06:17:33;;;;;;;;;6.33;5.00;;;;;10.85;75.99;100247.97;4977442;28;45242;-73
2022/11/15 06:19:58;;;;;;;;;4.67;3.33;;;;;10.84;76.16;100245.47;4978418;28;45461;-70
2022/11/15 06:22:24;;;;;;;;;4.67;4.67;;;;;10.80;75.88;100231.63;4978022;28;45479;-70
2022/11/15 06:24:49;;;;;;;;;5.00;4.00;;;;;10.96;76.35;100233.53;4978188;28;45654;-70
2022/11/15 06:27:15;;;;;;;;;6.33;4.67;;;;;10.75;76.19;100187.91;4978439;28;45334;-71
2022/11/15 06:29:40;;;;;;;;;7.67;4.33;;;;;10.85;75.80;100193.94;4992848;28;45776;-76
2022/11/15 06:32:05;;;;;;;;;3.00;3.00;;;;;11.07;75.71;100209.34;4978709;28;45893;-73
2022/11/15 06:34:31;;;;;;;;;3.67;3.67;;;;;10.87;75.46;100181.31;4978358;28;45432;-71
2022/11/15 06:36:56;;;;;;;;;8.00;6.00;;;;;11.14;75.49;100221.00;4977405;28;45462;-71
2022/11/15 06:39:21;;;;;;;;;7.00;7.00;;;;;11.08;75.27;100205.69;4976636;28;45453;-72
2022/11/15 06:41:47;;;;;;;;;6.00;5.00;;;;;11.22;75.63;100209.56;4976943;28;45460;-71
2022/11/15 06:44:12;;;;;;;;;5.00;5.00;;;;;10.34;75.56;100054.81;4978741;28;45545;-70
2022/11/15 06:46:37;;;;;;;;;4.00;4.00;;;;;11.21;75.39;100181.25;4977613;28;46107;-71
2022/11/15 06:49:03;;;;;;;;;5.33;5.33;;;;;11.13;75.38;100163.44;4977869;28;45369;-71
2022/11/15 06:51:28;;;;;;;;;6.00;5.00;;;;;11.29;75.22;100189.28;4978974;28;45272;-71
2022/11/15 06:53:54;;;;;;;;;6.67;5.00;;;;;11.27;75.43;100189.44;4977021;28;45472;-73
2022/11/15 06:56:19;;;;;;;;;5.33;5.33;;;;;11.26;75.47;100186.94;4978211;28;45436;-70
2022/11/15 06:58:44;;;;;;;;;3.67;3.67;;;;;11.27;75.63;100188.63;4977798;28;66090;-71
2022/11/15 07:01:11;;;;;;;;;3.00;3.00;;;;;11.18;75.72;100166.44;4978137;28;45500;-72
2022/11/15 07:03:39;;;;;;;;;7.00;4.67;;;;;10.73;75.72;100084.38;4978158;28;45255;-71
2022/11/15 07:06:05;;;;;;;;;6.00;5.00;;;;;10.67;75.59;100061.09;4989047;28;45467;-71
2022/11/15 07:08:31;;;;;;;;;6.00;4.33;;;;;11.25;75.77;100159.50;4957530;28;45477;-71
2022/11/15 07:11:02;;;;;;;;;3.00;3.00;;;;;11.14;76.08;100135.84;4956465;28;45424;-72
2022/11/15 07:13:28;;;;;;;;;4.67;4.67;;;;;11.01;75.79;100100.91;4958627;28;45624;-71
2022/11/15 07:15:54;;;;;;;;;5.00;5.00;;;;;11.18;76.06;100133.69;4957798;28;45636;-70
2022/11/15 07:18:19;;;;;;;;;5.33;5.33;;;;;10.94;76.69;100107.88;4957888;28;45529;-72
2022/11/15 07:20:45;;;;;;;;;4.00;4.00;;;;;11.05;76.32;100128.03;4958284;28;45412;-70
2022/11/15 07:23:10;;;;;;;;;5.00;3.33;;;;;10.60;76.59;100068.03;4958494;28;45545;-70
2022/11/15 07:25:36;;;;;;;;;6.00;5.00;;;;;11.16;76.73;100155.16;4958446;28;45410;-71
2022/11/15 07:28:04;;;;;;;;;7.67;6.00;;;;;11.21;76.73;100157.31;4958566;28;45552;-72
2022/11/15 07:30:30;;;;;;;;;7.00;6.00;;;;;10.92;76.41;100107.19;4960241;28;45228;-71
2022/11/15 07:33:00;;;;;;;;;5.33;5.00;;;;;11.27;76.47;100151.38;4958807;28;45319;-69
2022/11/15 07:35:27;;;;;;;;;3.33;3.33;;;;;11.34;76.36;100154.19;4956752;28;48450;-69
2022/11/15 07:37:58;;;;;;;;;7.00;4.00;;;;;10.77;76.36;100045.00;4956600;28;46300;-73
2022/11/15 07:40:24;;;;;;;;;9.33;7.67;;;;;11.26;75.89;100131.06;4973008;28;45553;-71
2022/11/15 07:42:52;;;;;;;;;6.67;5.67;;;;;11.49;76.40;100149.91;4958222;28;45530;-71
2022/11/15 07:45:18;;;;;;;;;5.00;4.00;;;;;11.47;76.25;100141.25;4957775;28;45685;-72
2022/11/15 07:47:50;;;;;;;;;6.67;5.00;;;;;11.34;75.88;100106.28;4958069;28;45248;-70
2022/11/15 07:50:16;;;;;;;;;7.33;6.00;;;;;10.86;75.64;100012.13;4962221;28;45336;-72
2022/11/15 07:52:42;;;;;;;;;6.00;4.00;;;;;11.37;75.62;100095.31;4977971;28;45558;-71
2022/11/15 07:55:08;;;;;;;;;6.67;6.00;;;;;11.59;76.29;100118.63;4979405;28;46258;-71
2022/11/15 07:57:33;;;;;;;;;4.67;4.67;;;;;11.55;76.01;100101.31;4979664;28;46507;-71
2022/11/15 07:59:59;;;;;;;;;7.00;4.00;;;;;11.59;75.95;100100.81;4980649;28;45687;-70
2022/11/15 08:02:24;;;;;;;;;9.00;4.33;;;;;11.57;75.80;100083.34;4981208;28;45429;-71
2022/11/15 08:04:49;;;;;;;;;6.33;5.00;;;;;11.69;75.59;100095.34;4980811;28;45770;-72
2022/11/15 08:07:15;;;;;;;;;5.33;4.67;;;;;11.25;75.68;100029.13;4980239;28;45291;-72
2022/11/15 08:09:40;;;;;;;;;7.67;6.33;;;;;11.59;75.78;100076.84;4979539;28;45544;-71
2022/11/15 08:12:05;;;;;;;;;6.00;5.00;;;;;11.77;75.44;100097.16;4979626;28;45593;-72
2022/11/15 08:14:31;;;;;;;;;7.00;4.33;;;;;11.80;75.38;100111.00;4980291;28;45799;-71
2022/11/15 08:16:56;;;;;;;;;8.67;6.00;;;;;11.73;75.16;100094.00;4981453;28;45488;-72
2022/11/15 08:19:21;;;;;;;;;5.67;5.67;;;;;11.35;75.26;100002.34;4980958;28;45203;-71
2022/11/15 08:21:47;;;;;;;;;7.00;7.00;;;;;11.90;74.41;100107.34;4965645;28;45433;-72
2022/11/15 08:24:13;;;;;;;;;8.67;6.00;;;;;12.03;74.55;100103.16;4975893;28;46676;-70
2022/11/15 08:26:39;;;;;;;;;7.33;6.00;;;;;11.52;74.54;99996.00;4961641;28;45199;-71
2022/11/15 08:29:05;;;;;;;;;7.00;6.00;;;;;12.13;74.25;100095.81;4976353;28;45404;-71
2022/11/15 08:31:31;;;;;;;;;4.33;4.00;;;;;12.29;73.95;100104.78;4962051;28;45553;-73
2022/11/15 08:33:56;;;;;;;;;5.67;4.00;;;;;12.25;73.38;100074.97;4975954;28;46344;-70
2022/11/15 08:36:22;;;;;;;;;5.00;5.00;;;;;12.22;73.21;100062.00;4961335;28;45401;-70
2022/11/15 08:38:48;;;;;;;;;4.00;3.50;;;;;11.78;73.08;99985.16;4961086;28;45476;-73
2022/11/15 08:41:29;;;;;;;;;4.33;4.33;;;;;12.22;72.88;100051.34;4960945;28;45294;-71
2022/11/15 08:43:55;;;;;;;;;5.67;5.67;;;;;12.55;72.80;100084.03;4960832;28;46603;-70
2022/11/15 08:46:20;;;;;;;;;8.33;8.00;;;;;12.34;72.59;100033.13;4958945;28;45522;-72
2022/11/15 08:48:46;;;;;;;;;5.67;4.67;;;;;12.61;72.53;100061.97;4961310;28;45443;-71
2022/11/15 08:51:11;;;;;;;;;4.67;4.67;;;;;12.73;72.14;100059.78;4971992;28;45333;-72
2022/11/15 08:53:36;;;;;;;;;4.67;4.67;;;;;12.91;71.33;100072.84;4981326;28;45496;-72
2022/11/15 08:56:13;;;;;;;;;7.00;5.67;;;;;12.90;71.44;100058.69;4981178;28;45372;-70
2022/11/15 08:58:39;;;;;;;;;5.00;5.00;;;;;12.76;71.35;100011.41;4980916;28;45227;-72
2022/11/15 09:01:05;;;;;;;;;4.00;3.00;;;;;13.02;71.13;100054.63;4980077;28;45465;-70
2022/11/15 09:03:31;;;;;;;;;5.00;5.00;;;;;12.27;71.19;99901.56;4980342;28;46407;-72
2022/11/15 09:05:58;;;;;;;;;4.67;4.00;;;;;13.17;70.60;100037.81;4995046;28;45338;-71
2022/11/15 09:08:24;;;;;;;;;9.00;6.00;;;;;13.23;70.66;100034.50;4981370;28;45317;-70
2022/11/15 09:10:50;;;;;;;;;6.67;6.67;;;;;13.13;70.32;100020.50;4982393;28;45499;-72
2022/11/15 09:13:16;;;;;;;;;6.33;6.33;;;;;12.75;70.55;99945.75;4981692;28;46150;-71
2022/11/15 09:15:42;;;;;;;;;5.67;4.00;;;;;13.12;69.95;100008.19;4981338;28;45329;-70
2022/11/15 09:18:07;;;;;;;;;7.00;6.00;;;;;13.09;70.69;99999.53;4981382;28;45249;-71
2022/11/15 09:20:33;;;;;;;;;5.67;4.33;;;;;12.77;70.08;99952.56;4980147;28;45512;-72
2022/11/15 09:23:02;;;;;;;;;5.33;4.00;;;;;12.70;69.75;99934.78;4980113;28;46615;-73
2022/11/15 09:25:29;;;;;;;;;4.00;2.67;;;;;13.24;70.19;100023.63;4980897;28;45528;-71
2022/11/15 09:27:54;;;;;;;;;5.00;5.00;;;;;12.71;69.99;99942.59;4979759;28;45432;-71
2022/11/15 09:30:20;;;;;;;;;8.67;7.67;;;;;13.21;69.78;100028.47;4980066;28;45412;-70
2022/11/15 09:32:45;;;;;;;;;6.00;5.00;;;;;13.10;70.19;100022.53;4979469;28;46073;-72
2022/11/15 09:35:10;;;;;;;;;3.33;2.67;;;;;13.17;69.92;100035.97;4979841;28;45307;-72
2022/11/15 09:37:36;;;;;;;;;3.00;2.00;;;;;13.12;69.66;100026.84;4978706;28;45331;-72
2022/11/15 09:40:02;;;;;;;;;7.00;3.00;;;;;12.95;69.95;99986.94;4994820;28;45545;-72
2022/11/15 09:42:52;;;;;;;;;6.00;4.00;;;;;13.23;69.67;100029.16;4977984;28;48583;-72
2022/11/15 09:45:30;;;;;;;;;4.00;4.00;;;;;13.28;69.55;100026.78;4994486;28;45266;-72
2022/11/15 09:48:21;;;;;;;;;9.33;8.33;;;;;12.99;69.69;99980.22;4978999;28;45433;-71
2022/11/15 09:50:49;;;;;;;;;3.33;3.33;;;;;13.30;69.92;100027.41;4979341;28;45798;-71
2022/11/15 09:53:47;;;;;;;;;5.00;4.33;;;;;13.33;70.34;100024.38;4978745;28;46419;-71
2022/11/15 09:56:26;;;;;;;;;6.00;4.67;;;;;13.10;70.71;99998.50;4975705;28;45407;-70
2022/11/15 09:59:17;;;;;;;;;7.67;4.67;;;;;12.65;70.87;99934.50;4979153;28;45257;-71
2022/11/15 10:01:52;;;;;;;;;4.67;3.67;;;;;13.23;71.40;100034.50;4978960;28;45291;-71
2022/11/15 10:04:18;;;;;;;;;2.67;2.00;;;;;13.01;71.89;99988.06;4977441;28;47349;-71
2022/11/15 10:07:02;;;;;;;;;3.33;3.33;;;;;12.47;72.16;99884.94;4978073;28;45517;-71
2022/11/15 10:09:43;;;;;;;;;2.33;1.67;;;;;13.20;72.09;100008.13;4979293;28;45386;-70
2022/11/15 10:12:12;;;;;;;;;4.67;2.33;;;;;13.20;72.36;99998.28;4978793;28;45511;-71
2022/11/15 10:14:37;;;;;;;;;6.33;5.33;;;;;12.98;72.61;99954.56;4978671;28;45341;-73
2022/11/15 10:17:27;;;;;;;;;3.33;2.67;;;;;12.40;72.92;99851.16;4979438;28;45477;-71
2022/11/15 10:20:03;;;;;;;;;2.00;2.00;;;;;13.16;72.99;99969.44;4979490;28;45550;-71
2022/11/15 10:22:35;;;;;;;;;4.00;4.00;;;;;12.91;73.00;99924.28;4979045;28;45293;-72
2022/11/15 10:25:25;;;;;;;;;5.33;4.00;;;;;13.32;72.79;99958.66;4978473;28;45763;-71
2022/11/15 10:28:10;;;;;;;;;3.75;3.75;;;;;13.41;72.92;99949.53;4987683;28;45520;-71
2022/11/15 10:30:39;;;;;;;;;5.00;5.00;;;;;12.96;72.85;99870.38;4978601;28;45549;-71
2022/11/15 10:33:20;;;;;;;;;6.33;5.00;;;;;13.53;73.44;99961.47;4979039;28;45334;-71
2022/11/15 10:35:45;;;;;;;;;6.00;5.67;;;;;12.82;72.73;99845.34;4976957;28;45942;-70
2022/11/15 10:38:12;;;;;;;;;7.33;5.33;;;;;12.86;72.55;99841.31;4978816;28;45557;-70
2022/11/15 10:40:39;;;;;;;;;8.33;5.00;;;;;13.59;73.29;99944.69;4994105;28;45275;-70
2022/11/15 10:43:19;;;;;;;;;8.00;7.00;;;;;13.47;72.35;99905.28;4977111;28;45281;-72
2022/11/15 10:45:46;;;;;;;;;5.00;5.00;;;;;13.17;73.27;99867.84;4978332;28;45441;-70
2022/11/15 10:48:11;;;;;;;;;7.33;7.33;;;;;13.60;73.33;99934.84;4993229;28;45825;-77
2022/11/15 10:50:36;;;;;;;;;7.00;4.00;;;;;13.33;73.13;99885.56;4978272;28;45385;-72
2022/11/15 10:53:02;;;;;;;;;7.00;5.67;;;;;13.62;73.84;99928.34;4977478;28;45498;-72
2022/11/15 10:55:31;;;;;;;;;4.67;4.33;;;;;13.34;73.86;99871.22;4976914;28;45721;-71
2022/11/15 10:58:05;;;;;;;;;6.67;6.67;;;;;13.50;74.13;99911.09;4982451;28;46075;-72
2022/11/15 11:00:35;;;;;;;;;7.00;7.00;;;;;13.42;74.63;99899.69;4978082;28;45399;-74
2022/11/15 11:03:03;;;;;;;;;5.67;4.33;;;;;13.50;74.55;99912.94;4978036;28;45270;-72
2022/11/15 11:05:37;;;;;;;;;11.00;9.33;;;;;13.32;74.53;99867.91;4977952;28;45631;-74
2022/11/15 11:08:07;;;;;;;;;6.00;6.00;;;;;13.48;75.05;99896.28;4977920;28;46395;-73
2022/11/15 11:10:34;;;;;;;;;8.33;5.00;;;;;13.22;74.71;99856.66;4978041;28;45263;-73
2022/11/15 11:13:24;;;;;;;;;11.33;10.00;;;;;13.38;75.21;99885.84;4993201;28;45541;-72
2022/11/15 11:15:59;;;;;;;;;4.67;3.67;;;;;13.33;75.11;99870.38;4977852;28;46886;-72
2022/11/15 11:18:43;;;;;;;;;6.00;6.00;;;;;12.51;75.77;99735.28;4977631;28;45279;-71
2022/11/15 11:21:26;;;;;;;;;9.00;8.00;;;;;13.33;75.60;99867.72;4974274;28;45487;-71
2022/11/15 11:23:59;;;;;;;;;6.67;6.00;;;;;13.42;75.54;99870.31;4978016;28;45452;-72
2022/11/15 11:26:40;;;;;;;;;8.67;7.67;;;;;13.24;75.90;99839.47;4977619;28;46515;-72
2022/11/15 11:29:24;;;;;;;;;10.33;9.33;;;;;13.47;75.65;99858.06;4975620;28;45477;-72
2022/11/15 11:32:31;;;;;;;;;6.33;6.00;;;;;13.48;75.96;99862.38;4975493;28;45524;-72
2022/11/15 11:35:03;;;;;;;;;6.67;6.67;;;;;13.44;76.21;99855.75;4968600;28;45492;-71
2022/11/15 11:37:46;;;;;;;;;10.67;7.00;;;;;13.23;76.26;99826.28;4977421;28;46117;-73
2022/11/15 11:40:36;;;;;;;;;6.00;6.00;;;;;13.34;77.05;99844.50;4975949;28;46634;-73
2022/11/15 11:43:44;;;;;;;;;7.00;5.67;;;;;13.35;76.87;99854.19;4977881;28;45440;-71
2022/11/15 11:46:42;;;;;;;;;8.67;8.67;;;;;13.32;77.46;99839.34;4958962;28;45502;-70
2022/11/15 11:49:10;;;;;;;;;10.33;8.67;;;;;13.22;77.95;99825.47;4979059;28;46000;-72
2022/11/15 11:51:45;;;;;;;;;7.00;7.00;;;;;13.30;77.50;99848.56;4978474;28;45568;-72